createdAt,value
2023-09-25T00:02:23.864Z,6.40
2023-09-25T00:04:58.242Z,5.00
2023-09-25T00:07:33.422Z,6.20
2023-09-25T00:10:09.825Z,5.60
2023-09-25T00:12:45.568Z,8.20
2023-09-25T00:15:20.701Z,6.00
2023-09-25T00:17:55.450Z,5.70
2023-09-25T00:20:30.405Z,5.70
2023-09-25T00:23:04.863Z,5.00
2023-09-25T00:25:39.586Z,5.30
2023-09-25T00:28:14.131Z,4.90
2023-09-25T00:30:48.745Z,5.30
2023-09-25T00:33:23.723Z,7.20
2023-09-25T00:35:58.549Z,4.70
2023-09-25T00:38:33.204Z,7.00
2023-09-25T00:41:07.958Z,6.90
2023-09-25T00:43:42.899Z,8.10
2023-09-25T00:46:18.399Z,8.50
2023-09-25T00:48:53.370Z,7.60
2023-09-25T00:51:28.305Z,7.30
2023-09-25T00:54:03.783Z,7.50
2023-09-25T00:56:39.891Z,7.90
2023-09-25T00:59:15.064Z,7.90
2023-09-25T01:01:49.854Z,7.50
2023-09-25T01:04:26.088Z,8.70
2023-09-25T01:07:00.843Z,6.80
2023-09-25T01:09:36.439Z,9.40
2023-09-25T01:12:11.915Z,9.80
2023-09-25T01:14:46.486Z,9.60
2023-09-25T01:17:21.997Z,10.00
2023-09-25T01:19:57.329Z,10.50
2023-09-25T01:22:31.468Z,8.20
2023-09-25T01:25:07.575Z,9.80
2023-09-25T01:27:43.675Z,10.20
2023-09-25T01:30:20.404Z,9.90
2023-09-25T01:32:55.190Z,8.90
2023-09-25T01:35:29.943Z,8.90
2023-09-25T01:38:06.154Z,10.80
2023-09-25T01:40:40.814Z,10.30
2023-09-25T01:43:15.366Z,8.80
2023-09-25T01:45:50.152Z,9.50
2023-09-25T01:48:25.672Z,8.80
2023-09-25T01:51:00.252Z,10.80
2023-09-25T01:53:35.310Z,12.70
2023-09-25T01:56:17.202Z,9.90
2023-09-25T01:58:51.794Z,9.10
2023-09-25T02:01:26.607Z,9.80
2023-09-25T02:04:01.217Z,9.50
2023-09-25T02:06:36.343Z,9.30
2023-09-25T02:09:11.902Z,10.50
2023-09-25T02:11:46.558Z,9.20
2023-09-25T02:14:21.375Z,12.20
2023-09-25T02:16:55.922Z,10.00
2023-09-25T02:19:30.408Z,9.00
2023-09-25T02:22:07.858Z,9.50
2023-09-25T02:24:42.523Z,9.90
2023-09-25T02:27:19.047Z,9.30
2023-09-25T02:29:53.824Z,8.30
2023-09-25T02:32:28.935Z,9.40
2023-09-25T02:35:03.517Z,9.30
2023-09-25T02:37:39.139Z,9.60
2023-09-25T02:40:16.491Z,8.90
2023-09-25T02:42:54.653Z,9.40
2023-09-25T02:45:29.166Z,8.60
2023-09-25T02:48:03.980Z,9.90
2023-09-25T02:50:38.586Z,8.40
2023-09-25T02:53:13.721Z,9.90
2023-09-25T02:55:53.166Z,7.80
2023-09-25T02:58:30.259Z,7.60
2023-09-25T03:01:04.950Z,8.10
2023-09-25T03:03:41.436Z,8.30
2023-09-25T03:06:15.722Z,9.20
2023-09-25T03:08:50.335Z,8.40
2023-09-25T03:11:25.332Z,9.40
2023-09-25T03:13:59.745Z,8.70
2023-09-25T03:16:34.238Z,8.20
2023-09-25T03:19:08.644Z,8.60
2023-09-25T03:21:44.417Z,7.70
2023-09-25T03:24:18.929Z,6.70
2023-09-25T03:26:56.041Z,7.10
2023-09-25T03:29:30.793Z,8.70
2023-09-25T03:32:05.006Z,7.80
2023-09-25T03:34:39.946Z,8.60
2023-09-25T03:37:14.306Z,8.30
2023-09-25T03:39:48.684Z,9.30
2023-09-25T03:42:23.360Z,7.50
2023-09-25T03:44:57.985Z,7.60
2023-09-25T03:47:32.441Z,7.40
2023-09-25T03:50:07.603Z,8.70
2023-09-25T03:52:41.958Z,7.90
2023-09-25T03:55:16.622Z,9.20
2023-09-25T03:57:51.244Z,9.00
2023-09-25T04:00:28.255Z,8.10
2023-09-25T04:03:02.966Z,6.90
2023-09-25T04:05:38.082Z,7.80
2023-09-25T04:08:14.024Z,7.80
2023-09-25T04:10:48.497Z,8.40
2023-09-25T04:13:24.208Z,7.70
2023-09-25T04:15:59.623Z,8.70
2023-09-25T04:18:33.986Z,7.80
2023-09-25T04:21:08.561Z,8.40
2023-09-25T04:23:43.192Z,9.00
2023-09-25T04:26:17.513Z,8.10
2023-09-25T04:28:52.352Z,7.90
2023-09-25T04:31:32.555Z,10.30
2023-09-25T04:34:11.732Z,9.00
2023-09-25T04:36:47.549Z,8.10
2023-09-25T04:39:21.968Z,8.70
2023-09-25T04:41:58.386Z,9.90
2023-09-25T04:44:32.752Z,8.00
2023-09-25T04:47:07.109Z,11.00
2023-09-25T04:49:41.413Z,10.20
2023-09-25T04:52:15.667Z,9.10
2023-09-25T04:54:50.558Z,9.80
2023-09-25T04:57:25.521Z,10.60
2023-09-25T04:59:59.809Z,10.10
2023-09-25T05:02:34.202Z,9.70
2023-09-25T05:05:10.247Z,9.70
2023-09-25T05:07:45.906Z,10.60
2023-09-25T05:10:23.310Z,9.00
2023-09-25T05:13:00.191Z,10.10
2023-09-25T05:15:35.384Z,9.90
2023-09-25T05:18:10.475Z,11.50
2023-09-25T05:20:44.845Z,15.80
2023-09-25T05:23:21.854Z,10.60
2023-09-25T05:25:59.215Z,9.90
2023-09-25T05:28:33.725Z,12.30
2023-09-25T05:31:08.559Z,8.10
2023-09-25T05:33:43.108Z,9.50
2023-09-25T05:36:17.728Z,11.20
2023-09-25T05:38:56.612Z,9.80
2023-09-25T05:41:33.123Z,9.30
2023-09-25T05:44:07.907Z,10.50
2023-09-25T05:46:42.810Z,10.20
2023-09-25T05:49:17.322Z,9.30
2023-09-25T05:51:54.570Z,10.70
2023-09-25T05:54:29.747Z,11.10
2023-09-25T05:57:06.991Z,9.60
2023-09-25T05:59:41.524Z,9.30
2023-09-25T06:02:18.790Z,12.30
2023-09-25T06:04:53.187Z,9.60
2023-09-25T06:07:27.949Z,9.00
2023-09-25T06:10:05.392Z,10.00
2023-09-25T06:12:41.053Z,9.20
2023-09-25T06:15:15.866Z,9.70
2023-09-25T06:17:52.133Z,8.70
2023-09-25T06:20:28.792Z,10.20
2023-09-25T06:23:05.285Z,9.30
2023-09-25T06:25:43.189Z,9.20
2023-09-25T06:28:21.801Z,8.90
2023-09-25T06:30:56.265Z,8.50
2023-09-25T06:33:31.192Z,8.40
2023-09-25T06:36:06.292Z,8.30
2023-09-25T06:38:40.763Z,9.90
2023-09-25T06:41:16.560Z,7.40
2023-09-25T06:43:50.845Z,8.50
2023-09-25T06:46:25.173Z,7.70
2023-09-25T06:49:00.201Z,7.50
2023-09-25T06:51:35.569Z,6.90
2023-09-25T06:54:11.056Z,8.70
2023-09-25T06:56:45.563Z,8.90
2023-09-25T06:59:20.732Z,7.40
2023-09-25T07:01:55.664Z,8.40
2023-09-25T07:04:30.644Z,8.80
2023-09-25T07:07:06.194Z,7.70
2023-09-25T07:09:41.096Z,7.50
2023-09-25T07:12:17.388Z,7.30
2023-09-25T07:14:57.920Z,8.60
2023-09-25T07:17:33.028Z,7.70
2023-09-25T07:20:09.472Z,6.60
2023-09-25T07:22:45.225Z,7.30
2023-09-25T07:25:20.814Z,6.30
2023-09-25T07:27:55.916Z,7.80
2023-09-25T07:30:31.001Z,6.30
2023-09-25T07:33:06.020Z,7.20
2023-09-25T07:35:40.883Z,5.80
2023-09-25T07:38:15.565Z,6.20
2023-09-25T07:41:00.077Z,7.50
2023-09-25T07:43:51.014Z,7.60
2023-09-25T07:46:32.567Z,6.30
2023-09-25T07:49:08.096Z,5.60
2023-09-25T07:51:42.669Z,5.50
2023-09-25T07:54:17.839Z,6.60
2023-09-25T07:56:53.012Z,6.20
2023-09-25T07:59:28.866Z,6.10
2023-09-25T08:02:03.479Z,5.50
2023-09-25T08:04:38.464Z,5.70
2023-09-25T08:07:13.149Z,5.30
2023-09-25T08:09:50.770Z,5.90
2023-09-25T08:12:26.465Z,5.70
2023-09-25T08:15:11.854Z,7.20
2023-09-25T08:17:51.301Z,6.90
2023-09-25T08:20:28.820Z,7.60
2023-09-25T08:23:03.537Z,6.50
2023-09-25T08:25:38.067Z,5.90
2023-09-25T08:28:15.272Z,6.90
2023-09-25T08:30:50.272Z,5.50
2023-09-25T08:33:25.146Z,5.30
2023-09-25T08:36:00.054Z,5.50
2023-09-25T08:38:35.533Z,7.50
2023-09-25T08:41:14.913Z,6.60
2023-09-25T08:43:51.588Z,5.80
2023-09-25T08:46:27.781Z,5.90
2023-09-25T08:49:02.948Z,6.80
2023-09-25T08:51:40.463Z,5.00
2023-09-25T08:54:15.526Z,5.90
2023-09-25T08:56:50.675Z,6.40
2023-09-25T08:59:26.311Z,6.50
2023-09-25T09:02:01.961Z,5.60
2023-09-25T09:04:36.497Z,7.30
2023-09-25T09:07:13.158Z,5.50
2023-09-25T09:09:48.225Z,5.50
2023-09-25T09:12:23.383Z,5.40
2023-09-25T09:14:58.163Z,5.60
2023-09-25T09:17:35.718Z,4.50
2023-09-25T09:20:13.915Z,7.10
2023-09-25T09:22:57.140Z,4.40
2023-09-25T09:25:33.439Z,4.40
2023-09-25T09:28:10.569Z,6.90
2023-09-25T09:30:45.719Z,4.30
2023-09-25T09:33:22.024Z,5.20
2023-09-25T09:35:56.901Z,3.80
2023-09-25T09:38:35.676Z,4.60
2023-09-25T09:41:14.590Z,4.10
2023-09-25T09:43:51.567Z,5.60
2023-09-25T09:46:33.213Z,6.30
2023-09-25T09:49:09.754Z,4.60
2023-09-25T09:51:48.804Z,4.00
2023-09-25T09:54:26.533Z,5.50
2023-09-25T09:57:04.227Z,3.10
2023-09-25T09:59:39.485Z,4.50
2023-09-25T10:02:15.960Z,5.50
2023-09-25T10:04:53.914Z,5.70
2023-09-25T10:07:30.405Z,3.60
2023-09-25T10:10:11.888Z,4.10
2023-09-25T10:13:06.201Z,3.60
2023-09-25T10:15:56.303Z,3.70
2023-09-25T10:18:33.394Z,3.70
2023-09-25T10:21:16.016Z,3.40
2023-09-25T10:23:55.695Z,4.10
2023-09-25T10:26:35.131Z,3.50
2023-09-25T10:29:20.194Z,3.30
2023-09-25T10:31:55.506Z,4.10
2023-09-25T10:34:30.989Z,4.00
2023-09-25T10:37:06.697Z,4.10
2023-09-25T10:39:41.551Z,4.40
2023-09-25T10:42:18.112Z,3.90
2023-09-25T10:44:54.070Z,5.20
2023-09-25T10:47:33.800Z,4.40
2023-09-25T10:50:10.287Z,7.10
2023-09-25T10:52:46.253Z,3.60
2023-09-25T10:55:21.695Z,4.10
2023-09-25T10:57:57.210Z,5.80
2023-09-25T11:00:34.197Z,3.90
2023-09-25T11:03:27.529Z,3.60
2023-09-25T11:06:14.562Z,5.20
2023-09-25T11:08:49.730Z,3.90
2023-09-25T11:11:25.964Z,4.80
2023-09-25T11:14:04.407Z,4.00
2023-09-25T11:16:40.967Z,4.70
2023-09-25T11:19:18.935Z,3.90
2023-09-25T11:21:56.684Z,3.50
2023-09-25T11:24:34.732Z,3.70
2023-09-25T11:27:31.703Z,4.30
2023-09-25T11:30:33.897Z,4.60
2023-09-25T11:33:37.937Z,3.50
2023-09-25T11:36:24.868Z,3.80
2023-09-25T11:39:01.492Z,26.60
2023-09-25T11:41:36.107Z,4.70
2023-09-25T11:44:16.780Z,2.70
2023-09-25T11:46:52.518Z,4.80
2023-09-25T11:49:27.596Z,3.90
2023-09-25T11:52:02.439Z,4.40
2023-09-25T11:54:37.398Z,5.30
2023-09-25T11:57:12.127Z,4.10
2023-09-25T11:59:47.219Z,3.70
2023-09-25T12:02:24.035Z,3.70
2023-09-25T12:05:00.423Z,4.20
2023-09-25T12:07:39.159Z,5.40
2023-09-25T12:10:18.139Z,4.10
2023-09-25T12:12:54.463Z,3.30
2023-09-25T12:15:29.492Z,3.10
2023-09-25T12:18:05.491Z,4.60
2023-09-25T12:20:44.547Z,3.30
2023-09-25T12:23:19.477Z,4.20
2023-09-25T12:25:53.992Z,3.70
2023-09-25T12:28:39.964Z,3.30
2023-09-25T12:31:15.551Z,3.00
2023-09-25T12:33:51.474Z,4.00
2023-09-25T12:36:26.649Z,7.00
2023-09-25T12:39:35.686Z,2.20
2023-09-25T12:42:21.589Z,3.60
2023-09-25T12:44:59.678Z,4.30
2023-09-25T12:47:55.009Z,4.50
2023-09-25T12:50:56.435Z,2.80
2023-09-25T12:53:31.753Z,4.20
2023-09-25T12:56:06.874Z,2.70
2023-09-25T12:59:12.020Z,4.10
2023-09-25T13:01:51.293Z,3.40
2023-09-25T13:04:38.915Z,4.80
2023-09-25T13:07:14.264Z,3.30
2023-09-25T13:09:53.744Z,3.40
2023-09-25T13:12:29.001Z,3.90
2023-09-25T13:15:05.351Z,4.40
2023-09-25T13:17:43.318Z,8.90
2023-09-25T13:20:19.206Z,3.50
2023-09-25T13:22:54.364Z,4.60
2023-09-25T13:25:31.630Z,6.00
2023-09-25T13:28:07.646Z,3.50
2023-09-25T13:30:42.780Z,3.30
2023-09-25T13:33:18.153Z,3.60
2023-09-25T13:35:53.845Z,4.60
2023-09-25T13:38:28.212Z,4.00
2023-09-25T13:41:05.375Z,3.50
2023-09-25T13:43:44.040Z,4.70
2023-09-25T13:46:18.630Z,4.60
2023-09-25T13:48:59.517Z,5.40
2023-09-25T13:51:34.158Z,5.10
2023-09-25T13:54:09.323Z,4.10
2023-09-25T13:56:44.630Z,4.30
2023-09-25T13:59:19.850Z,4.60
2023-09-25T14:01:55.407Z,4.30
2023-09-25T14:04:33.519Z,5.10
2023-09-25T14:07:08.458Z,6.30
2023-09-25T14:09:43.207Z,5.20
2023-09-25T14:12:17.784Z,5.70
2023-09-25T14:15:15.372Z,4.60
2023-09-25T14:17:53.010Z,5.20
2023-09-25T14:20:27.773Z,4.40
2023-09-25T14:23:04.425Z,3.90
2023-09-25T14:26:01.581Z,5.00
2023-09-25T14:28:41.029Z,3.80
2023-09-25T14:31:16.862Z,4.50
2023-09-25T14:33:52.422Z,5.60
2023-09-25T14:36:27.526Z,7.50
2023-09-25T14:39:04.030Z,5.10
2023-09-25T14:41:38.562Z,4.20
2023-09-25T14:44:34.718Z,6.50
2023-09-25T14:47:12.395Z,5.20
2023-09-25T14:49:50.529Z,5.70
2023-09-25T14:52:30.447Z,5.60
2023-09-25T14:55:05.994Z,5.50
2023-09-25T14:57:42.941Z,7.10
2023-09-25T15:00:19.779Z,4.60
2023-09-25T15:02:54.493Z,6.20
2023-09-25T15:05:29.094Z,5.90
2023-09-25T15:08:29.587Z,5.40
2023-09-25T15:11:04.375Z,6.00
2023-09-25T15:13:43.941Z,4.30
2023-09-25T15:16:18.794Z,5.50
2023-09-25T15:18:53.517Z,5.40
2023-09-25T15:21:29.161Z,7.20
2023-09-25T15:24:03.944Z,5.50
2023-09-25T15:26:38.774Z,8.20
2023-09-25T15:29:13.951Z,5.80
2023-09-25T15:31:49.339Z,5.10
2023-09-25T15:34:24.970Z,5.50
2023-09-25T15:36:59.967Z,7.60
2023-09-25T15:39:35.536Z,7.60
2023-09-25T15:42:10.513Z,6.00
2023-09-25T15:44:45.913Z,6.10
2023-09-25T15:47:20.594Z,6.30
2023-09-25T15:49:55.563Z,7.60
2023-09-25T15:52:30.023Z,5.80
2023-09-25T15:55:04.764Z,6.30
2023-09-25T15:57:39.249Z,5.70
2023-09-25T16:00:17.020Z,6.60
2023-09-25T16:03:09.436Z,6.90
2023-09-25T16:05:45.138Z,6.50
2023-09-25T16:08:22.236Z,9.40
2023-09-25T16:10:57.091Z,7.80
2023-09-25T16:13:31.893Z,9.30
2023-09-25T16:16:12.456Z,7.00
2023-09-25T16:18:47.794Z,7.80
2023-09-25T16:21:26.320Z,6.40
2023-09-25T16:24:21.224Z,7.50
2023-09-25T16:26:56.810Z,7.70
2023-09-25T16:29:31.924Z,6.90
2023-09-25T16:32:07.457Z,6.90
2023-09-25T16:34:42.762Z,7.20
2023-09-25T16:37:17.717Z,7.50
2023-09-25T16:39:52.521Z,8.60
2023-09-25T16:42:27.373Z,7.80
2023-09-25T16:45:03.049Z,6.50
2023-09-25T16:47:38.034Z,9.20
2023-09-25T16:50:14.598Z,8.40
2023-09-25T16:52:49.851Z,9.20
2023-09-25T16:55:24.370Z,7.80
2023-09-25T16:58:00.465Z,7.30
2023-09-25T17:00:36.397Z,7.00
2023-09-25T17:03:13.869Z,8.30
2023-09-25T17:05:48.965Z,8.80
2023-09-25T17:08:23.736Z,7.10
2023-09-25T17:10:58.520Z,7.10
2023-09-25T17:13:33.726Z,7.40
2023-09-25T17:16:14.638Z,7.00
2023-09-25T17:18:49.837Z,8.60
2023-09-25T17:21:24.654Z,6.40
2023-09-25T17:23:59.583Z,8.70
2023-09-25T17:26:34.512Z,12.10
2023-09-25T17:29:09.597Z,11.30
2023-09-25T17:31:44.457Z,8.60
2023-09-25T17:34:19.861Z,11.00
2023-09-25T17:36:54.988Z,9.30
2023-09-25T17:39:32.110Z,10.90
2023-09-25T17:42:07.654Z,8.80
2023-09-25T17:44:42.375Z,8.40
2023-09-25T17:47:17.358Z,8.10
2023-09-25T17:49:53.868Z,10.60
2023-09-25T17:52:30.550Z,9.70
2023-09-25T17:55:05.986Z,9.30
2023-09-25T17:57:41.671Z,7.90
2023-09-25T18:00:19.676Z,8.80
2023-09-25T18:02:54.438Z,9.80
2023-09-25T18:05:30.395Z,9.10
2023-09-25T18:08:05.601Z,10.00
2023-09-25T18:10:40.372Z,8.30
2023-09-25T18:13:17.857Z,10.50
2023-09-25T18:15:53.690Z,11.00
2023-09-25T18:18:28.566Z,10.10
2023-09-25T18:21:03.760Z,8.70
2023-09-25T18:23:39.404Z,10.90
2023-09-25T18:26:14.470Z,12.50
2023-09-25T18:28:49.375Z,13.70
2023-09-25T18:31:24.359Z,12.90
2023-09-25T18:33:59.307Z,13.30
2023-09-25T18:36:33.969Z,11.40
2023-09-25T18:39:09.587Z,17.30
2023-09-25T18:41:44.462Z,14.30
2023-09-25T18:44:22.552Z,14.50
2023-09-25T18:46:57.467Z,14.70
2023-09-25T18:49:31.998Z,12.90
2023-09-25T18:52:06.866Z,11.80
2023-09-25T18:54:41.576Z,12.70
2023-09-25T18:57:18.438Z,12.20
2023-09-25T18:59:53.927Z,12.70
2023-09-25T19:02:30.389Z,14.20
2023-09-25T19:05:06.337Z,13.00
2023-09-25T19:07:42.534Z,12.80
2023-09-25T19:10:17.658Z,11.00
2023-09-25T19:12:53.475Z,13.50
2023-09-25T19:15:28.272Z,11.60
2023-09-25T19:18:03.110Z,14.00
2023-09-25T19:20:37.789Z,13.40
2023-09-25T19:23:13.280Z,13.30
2023-09-25T19:25:49.252Z,27.40
2023-09-25T19:28:24.834Z,17.10
2023-09-25T19:30:59.684Z,20.20
2023-09-25T19:33:54.452Z,16.90
2023-09-25T19:36:29.267Z,15.10
2023-09-25T19:39:04.422Z,22.50
2023-09-25T19:41:40.127Z,14.90
2023-09-25T19:44:15.838Z,16.10
2023-09-25T19:46:50.977Z,16.50
2023-09-25T19:49:26.055Z,14.60
2023-09-25T19:52:01.512Z,15.20
2023-09-25T19:54:37.412Z,15.40
2023-09-25T19:57:18.400Z,14.10
2023-09-25T19:59:53.502Z,12.60
2023-09-25T20:02:30.528Z,10.40
2023-09-25T20:05:06.153Z,12.20
2023-09-25T20:07:41.093Z,11.10
2023-09-25T20:10:18.981Z,11.70
2023-09-25T20:12:54.137Z,10.60
2023-09-25T20:15:29.296Z,9.60
2023-09-25T20:18:04.583Z,10.90
2023-09-25T20:20:39.535Z,11.60
2023-09-25T20:23:14.425Z,10.80
2023-09-25T20:25:49.754Z,10.80
2023-09-25T20:28:25.037Z,10.80
2023-09-25T20:30:59.991Z,10.20
2023-09-25T20:33:34.964Z,9.30
2023-09-25T20:36:11.961Z,9.60
2023-09-25T20:38:47.956Z,11.00
2023-09-25T20:41:23.731Z,10.50
2023-09-25T20:43:59.420Z,12.70
2023-09-25T20:46:34.695Z,13.70
2023-09-25T20:49:09.783Z,8.20
2023-09-25T20:51:45.046Z,9.70
2023-09-25T20:54:20.208Z,9.90
2023-09-25T20:56:56.029Z,11.50
2023-09-25T20:59:31.031Z,9.70
2023-09-25T21:02:06.833Z,10.00
2023-09-25T21:04:42.114Z,10.60
2023-09-25T21:07:17.120Z,10.00
2023-09-25T21:09:51.952Z,11.90
2023-09-25T21:12:27.775Z,11.40
2023-09-25T21:15:03.151Z,14.20
2023-09-25T21:17:38.339Z,11.10
2023-09-25T21:20:15.658Z,10.00
2023-09-25T21:22:50.248Z,10.60
2023-09-25T21:25:24.828Z,11.30
2023-09-25T21:28:00.073Z,10.50
2023-09-25T21:30:34.783Z,8.40
2023-09-25T21:33:09.901Z,8.80
2023-09-25T21:35:45.420Z,10.80
2023-09-25T21:38:19.885Z,9.00
2023-09-25T21:40:54.960Z,9.90
2023-09-25T21:43:29.667Z,10.10
2023-09-25T21:46:04.871Z,9.90
2023-09-25T21:48:39.956Z,9.60
2023-09-25T21:51:14.828Z,10.60
2023-09-25T21:53:49.631Z,9.80
2023-09-25T21:56:24.296Z,10.20
2023-09-25T21:58:59.131Z,8.70
2023-09-25T22:01:33.939Z,11.40
2023-09-25T22:04:11.053Z,8.30
2023-09-25T22:06:45.667Z,12.10
2023-09-25T22:09:21.830Z,11.60
2023-09-25T22:11:56.425Z,9.70
2023-09-25T22:14:33.104Z,10.00
2023-09-25T22:17:07.896Z,9.20
2023-09-25T22:19:42.585Z,13.00
2023-09-25T22:22:17.275Z,11.40
2023-09-25T22:24:52.075Z,11.00
2023-09-25T22:27:27.019Z,13.00
2023-09-25T22:30:01.792Z,11.20
2023-09-25T22:32:37.277Z,9.30
2023-09-25T22:35:13.674Z,10.10
2023-09-25T22:38:08.051Z,11.30
2023-09-25T22:40:44.129Z,10.00
2023-09-25T22:43:18.684Z,9.90
2023-09-25T22:45:53.443Z,10.80
2023-09-25T22:48:28.279Z,9.40
2023-09-25T22:51:02.991Z,10.40
2023-09-25T22:53:37.688Z,12.00
2023-09-25T22:56:12.209Z,10.10
2023-09-25T22:58:46.818Z,11.70
2023-09-25T23:01:24.037Z,9.90
2023-09-25T23:03:59.072Z,10.10
2023-09-25T23:06:33.791Z,11.10
2023-09-25T23:09:10.839Z,8.50
2023-09-25T23:11:45.526Z,9.80
2023-09-25T23:14:20.756Z,11.60
2023-09-25T23:16:55.548Z,9.40
2023-09-25T23:19:30.012Z,12.50
2023-09-25T23:22:04.521Z,10.90
2023-09-25T23:24:39.176Z,9.10
2023-09-25T23:27:13.745Z,9.30
2023-09-25T23:29:48.521Z,10.00
2023-09-25T23:32:22.992Z,12.30
2023-09-25T23:34:57.754Z,10.20
2023-09-25T23:37:32.331Z,9.40
2023-09-25T23:40:12.230Z,8.60
2023-09-25T23:42:47.751Z,9.00
2023-09-25T23:45:24.230Z,9.40
2023-09-25T23:47:59.398Z,10.10
2023-09-25T23:50:33.962Z,9.90
2023-09-25T23:53:08.786Z,10.20
2023-09-25T23:55:43.230Z,10.60
2023-09-25T23:58:17.871Z,10.60
